Time;durP1;ratioP1;P1;durP2;ratioP2;P2;SDS_P1;SDS_P2;PMS_P1;PMS_P2;Temp;Humidity;BMP_temperature;BMP_pressure;BME280_temperature;BME280_humidity;BME280_pressure;Samples;Min_cycle;Max_cycle;Signal;HPM_P1;HPM_P2
2020/12/05 00:00:54;;;;;;;33.50;24.33;;;5.70;99.90;;;;;;5027778;28;20107;-67
2020/12/05 00:03:20;;;;;;;35.03;23.08;;;5.80;99.90;;;;;;5028365;28;20064;-68
2020/12/05 00:05:47;;;;;;;37.38;23.50;;;5.80;99.90;;;;;;5037628;28;20580;-70
2020/12/05 00:08:14;;;;;;;34.05;24.92;;;5.70;99.90;;;;;;5029504;28;20147;-67
2020/12/05 00:10:40;;;;;;;36.00;25.85;;;5.80;99.90;;;;;;5036322;28;20048;-69
2020/12/05 00:13:06;;;;;;;36.78;23.33;;;5.80;99.90;;;;;;5028247;28;20049;-71
2020/12/05 00:15:33;;;;;;;39.58;23.80;;;5.80;99.90;;;;;;5030150;28;20045;-72
2020/12/05 00:17:59;;;;;;;40.22;25.33;;;5.80;99.90;;;;;;5030019;28;20079;-74
2020/12/05 00:20:26;;;;;;;37.35;23.90;;;5.80;99.90;;;;;;5030229;28;20053;-68
2020/12/05 00:22:52;;;;;;;31.77;23.58;;;5.80;99.90;;;;;;5034603;28;20059;-72
2020/12/05 00:25:19;;;;;;;37.13;25.42;;;5.80;99.90;;;;;;5028103;28;20045;-69
2020/12/05 00:27:45;;;;;;;37.78;22.80;;;5.80;99.90;;;;;;5027163;28;20140;-70
2020/12/05 00:30:11;;;;;;;41.85;27.35;;;5.70;99.90;;;;;;5028702;28;20412;-72
2020/12/05 00:32:38;;;;;;;37.30;24.20;;;5.80;99.90;;;;;;5027172;28;20053;-70
2020/12/05 00:35:05;;;;;;;38.08;25.08;;;5.80;99.90;;;;;;5030556;28;20111;-72
2020/12/05 00:37:32;;;;;;;31.67;23.65;;;5.80;99.90;;;;;;5022470;28;20056;-74
2020/12/05 00:39:58;;;;;;;35.90;24.17;;;5.80;99.90;;;;;;5028768;28;20076;-71
2020/12/05 00:42:26;;;;;;;40.10;26.77;;;5.80;99.90;;;;;;5028144;28;20194;-69
2020/12/05 00:44:53;;;;;;;33.47;23.98;;;5.80;99.90;;;;;;5027423;28;20215;-70
2020/12/05 00:47:19;;;;;;;33.72;24.30;;;5.80;99.90;;;;;;5029959;28;20046;-71
2020/12/05 00:49:46;;;;;;;39.47;24.20;;;5.80;99.90;;;;;;5028548;28;20041;-68
2020/12/05 00:52:12;;;;;;;40.50;24.73;;;5.80;99.90;;;;;;5029645;28;20666;-73
2020/12/05 00:54:39;;;;;;;39.45;23.77;;;5.80;99.90;;;;;;5027757;28;20806;-70
2020/12/05 00:57:06;;;;;;;39.22;25.60;;;5.80;99.90;;;;;;5036747;28;20066;-71
2020/12/05 00:59:32;;;;;;;34.95;22.73;;;5.80;99.90;;;;;;5025786;28;20069;-71
2020/12/05 01:01:59;;;;;;;43.15;23.23;;;5.80;99.90;;;;;;5034904;28;20166;-68
2020/12/05 01:04:28;;;;;;;38.08;24.23;;;5.80;99.90;;;;;;5034026;28;20083;-71
2020/12/05 01:06:56;;;;;;;35.75;24.70;;;5.80;99.90;;;;;;5029525;28;20085;-69
2020/12/05 01:09:22;;;;;;;35.10;25.77;;;5.80;99.90;;;;;;5031789;28;20148;-71
2020/12/05 01:11:49;;;;;;;32.80;24.27;;;5.90;99.90;;;;;;5026323;28;20060;-67
2020/12/05 01:14:16;;;;;;;39.70;25.30;;;5.90;99.90;;;;;;5028049;28;20128;-68
2020/12/05 01:16:45;;;;;;;34.78;22.23;;;5.90;99.90;;;;;;5026245;28;20071;-71
2020/12/05 01:19:11;;;;;;;41.30;24.67;;;5.90;99.90;;;;;;5029886;28;20072;-70
2020/12/05 01:21:38;;;;;;;39.30;23.63;;;5.90;99.90;;;;;;5034581;28;20522;-73
2020/12/05 01:24:04;;;;;;;30.52;23.08;;;5.90;99.90;;;;;;5027761;28;20057;-69
2020/12/05 01:26:31;;;;;;;36.22;23.98;;;5.90;99.90;;;;;;5031737;28;20045;-67
2020/12/05 01:28:57;;;;;;;31.02;22.67;;;5.90;99.90;;;;;;5025383;28;20049;-69
2020/12/05 01:31:24;;;;;;;39.38;24.80;;;5.90;99.90;;;;;;5026150;28;20146;-69
2020/12/05 01:33:50;;;;;;;36.85;24.20;;;5.90;99.90;;;;;;5036243;28;20049;-67
2020/12/05 01:36:17;;;;;;;36.90;23.45;;;5.90;99.90;;;;;;5032151;28;20076;-70
2020/12/05 01:38:43;;;;;;;41.30;24.73;;;5.90;99.90;;;;;;5029762;28;20037;-68
2020/12/05 01:41:09;;;;;;;37.78;24.98;;;5.90;99.90;;;;;;5028248;28;20211;-75
2020/12/05 01:43:39;;;;;;;38.88;23.80;;;5.90;99.90;;;;;;5030373;28;20457;-71
2020/12/05 01:46:06;;;;;;;38.85;27.63;;;5.90;99.90;;;;;;5031355;28;20056;-69
2020/12/05 01:48:34;;;;;;;29.92;23.45;;;5.90;99.90;;;;;;5034179;28;20573;-73
2020/12/05 01:51:00;;;;;;;42.20;26.33;;;5.90;99.90;;;;;;5024315;28;20071;-75
2020/12/05 01:53:28;;;;;;;36.15;22.70;;;5.90;99.90;;;;;;5027605;28;20781;-70
2020/12/05 01:55:54;;;;;;;32.42;24.30;;;5.90;99.90;;;;;;5033243;28;20053;-69
2020/12/05 01:58:21;;;;;;;37.97;22.48;;;5.90;99.90;;;;;;5027441;28;20061;-71
2020/12/05 02:00:47;;;;;;;32.22;22.60;;;5.90;99.90;;;;;;5031526;28;20053;-74
2020/12/05 02:03:17;;;;;;;38.95;24.58;;;5.90;99.90;;;;;;5021871;28;20136;-68
2020/12/05 02:05:55;;;;;;;43.58;27.40;;;5.90;99.90;;;;;;5032880;28;20132;-69
2020/12/05 02:08:53;;;;;;;41.45;26.08;;;5.90;99.90;;;;;;5032236;28;20049;-71
2020/12/05 02:11:23;;;;;;;33.42;24.55;;;5.90;99.90;;;;;;5022210;28;20778;-72
2020/12/05 02:13:56;;;;;;;31.33;22.10;;;5.90;99.90;;;;;;5030432;28;21103;-70
2020/12/05 02:16:24;;;;;;;33.10;23.40;;;5.90;99.90;;;;;;5030240;28;20053;-73
2020/12/05 02:18:52;;;;;;;42.58;26.00;;;5.90;99.90;;;;;;5028899;28;20079;-69
2020/12/05 02:21:20;;;;;;;37.17;26.20;;;5.90;99.90;;;;;;5022750;28;20432;-68
2020/12/05 02:23:47;;;;;;;36.40;24.70;;;5.90;99.90;;;;;;5026501;28;20145;-70
2020/12/05 02:26:14;;;;;;;33.53;23.88;;;5.90;99.90;;;;;;5028844;28;20088;-70
2020/12/05 02:28:41;;;;;;;36.67;24.25;;;6.00;99.90;;;;;;5036890;28;20049;-67
2020/12/05 02:31:08;;;;;;;38.53;24.50;;;5.90;99.90;;;;;;5027399;28;20552;-69
2020/12/05 02:33:35;;;;;;;37.03;22.95;;;5.90;99.90;;;;;;5023330;28;20053;-67
2020/12/05 02:36:01;;;;;;;33.47;23.48;;;5.90;99.90;;;;;;5028748;28;20103;-73
2020/12/05 02:39:01;;;;;;;33.25;23.60;;;5.90;99.90;;;;;;5026037;28;20146;-68
2020/12/05 02:41:28;;;;;;;40.08;23.20;;;5.90;99.90;;;;;;5027083;28;20049;-69
2020/12/05 02:43:55;;;;;;;38.40;24.23;;;6.00;99.90;;;;;;5026286;28;20041;-71
2020/12/05 02:46:21;;;;;;;37.15;23.48;;;6.00;99.90;;;;;;5028428;28;20049;-66
2020/12/05 02:48:48;;;;;;;38.35;24.67;;;6.00;99.90;;;;;;5033944;28;20076;-69
2020/12/05 02:51:14;;;;;;;36.22;24.50;;;6.00;99.90;;;;;;5026448;28;20045;-73
2020/12/05 02:53:41;;;;;;;30.73;23.45;;;6.00;99.90;;;;;;5024201;28;20053;-74
2020/12/05 02:56:07;;;;;;;39.63;23.92;;;6.00;99.90;;;;;;5028073;28;20051;-70
2020/12/05 02:58:34;;;;;;;37.83;25.63;;;6.00;99.90;;;;;;5026768;28;20069;-75
2020/12/05 03:01:00;;;;;;;37.08;28.15;;;6.00;99.90;;;;;;5032311;28;20048;-73
2020/12/05 03:03:27;;;;;;;37.33;22.65;;;6.00;99.90;;;;;;5025277;28;20128;-71
2020/12/05 03:05:53;;;;;;;35.83;23.73;;;6.00;99.90;;;;;;5034855;28;20056;-69
2020/12/05 03:08:19;;;;;;;37.42;22.95;;;6.00;99.90;;;;;;5031859;28;20115;-73
2020/12/05 03:10:46;;;;;;;36.58;22.50;;;6.00;99.90;;;;;;5031520;28;20060;-71
2020/12/05 03:13:12;;;;;;;36.85;23.05;;;6.00;99.90;;;;;;5035176;28;20516;-70
2020/12/05 03:15:39;;;;;;;42.47;25.92;;;6.00;99.90;;;;;;5038895;28;20051;-68
2020/12/05 03:18:05;;;;;;;34.72;22.52;;;6.00;99.90;;;;;;5032562;28;20038;-69
2020/12/05 03:20:31;;;;;;;38.83;23.02;;;6.00;99.90;;;;;;5033127;28;20072;-71
2020/12/05 03:22:58;;;;;;;33.45;22.83;;;6.00;99.90;;;;;;5029114;28;20092;-68
2020/12/05 03:25:24;;;;;;;38.28;25.00;;;6.00;99.90;;;;;;5027377;28;20053;-72
2020/12/05 03:27:51;;;;;;;40.58;23.13;;;6.00;99.90;;;;;;5028640;28;20133;-72
2020/12/05 03:30:17;;;;;;;42.55;25.48;;;6.10;99.90;;;;;;5031706;28;20127;-71
2020/12/05 03:32:44;;;;;;;34.67;22.50;;;6.10;99.90;;;;;;5028873;28;20432;-75
2020/12/05 03:35:11;;;;;;;39.72;25.08;;;6.10;99.90;;;;;;5026892;28;21551;-69
2020/12/05 03:37:38;;;;;;;43.33;24.17;;;6.10;99.90;;;;;;5033269;28;20048;-71
2020/12/05 03:40:05;;;;;;;42.40;25.40;;;6.10;99.90;;;;;;5035654;28;20060;-75
2020/12/05 03:42:32;;;;;;;37.67;24.40;;;6.10;99.90;;;;;;5027253;28;20402;-72
2020/12/05 03:44:59;;;;;;;38.75;23.88;;;6.10;99.90;;;;;;5035289;28;20151;-76
2020/12/05 03:47:26;;;;;;;32.00;21.92;;;6.10;99.90;;;;;;5029656;28;20420;-71
2020/12/05 03:49:54;;;;;;;35.78;24.67;;;6.10;99.90;;;;;;5030300;28;20741;-67
2020/12/05 03:52:20;;;;;;;39.55;25.00;;;6.10;99.90;;;;;;5036119;28;20674;-70
2020/12/05 03:54:47;;;;;;;35.65;24.35;;;6.10;99.90;;;;;;5031275;28;20128;-72
2020/12/05 03:57:14;;;;;;;37.92;24.50;;;6.10;99.90;;;;;;5034742;28;20126;-68
2020/12/05 03:59:40;;;;;;;39.95;24.98;;;6.10;99.90;;;;;;5027138;28;20049;-66
2020/12/05 04:02:07;;;;;;;39.83;24.52;;;6.10;99.90;;;;;;5029004;28;20058;-73
2020/12/05 04:04:33;;;;;;;41.55;24.60;;;6.10;99.90;;;;;;5038705;28;20049;-67
2020/12/05 04:07:00;;;;;;;38.80;23.52;;;6.10;99.90;;;;;;5031039;28;20535;-68
2020/12/05 04:09:27;;;;;;;41.55;25.90;;;6.10;99.90;;;;;;5033888;28;20150;-74
2020/12/05 04:11:53;;;;;;;39.33;25.40;;;6.10;99.90;;;;;;5036318;28;20085;-67
2020/12/05 04:14:38;;;;;;;38.33;24.60;;;6.10;99.90;;;;;;5029007;28;20063;-67
2020/12/05 04:17:06;;;;;;;33.90;23.00;;;6.10;99.90;;;;;;5031910;28;20446;-71
2020/12/05 04:19:33;;;;;;;41.13;26.23;;;6.10;99.90;;;;;;5037800;28;20493;-69
2020/12/05 04:22:01;;;;;;;38.28;25.38;;;6.20;99.90;;;;;;5028404;28;20045;-66
2020/12/05 04:24:27;;;;;;;35.50;23.73;;;6.20;99.90;;;;;;5030589;28;20664;-75
2020/12/05 04:26:54;;;;;;;39.70;24.50;;;6.20;99.90;;;;;;5031718;28;20643;-68
2020/12/05 04:29:21;;;;;;;32.67;23.25;;;6.20;99.90;;;;;;5034311;28;20191;-75
2020/12/05 04:31:47;;;;;;;38.17;24.95;;;6.20;99.90;;;;;;5027223;28;20095;-69
2020/12/05 04:34:13;;;;;;;41.25;26.33;;;6.10;99.90;;;;;;5028147;28;20049;-70
2020/12/05 04:36:40;;;;;;;37.88;25.30;;;6.20;99.90;;;;;;5025564;28;20045;-71
2020/12/05 04:39:06;;;;;;;39.28;25.10;;;6.20;99.90;;;;;;5024182;28;20048;-66
2020/12/05 04:41:33;;;;;;;37.70;25.42;;;6.20;99.90;;;;;;5029193;28;20107;-68
2020/12/05 04:43:59;;;;;;;45.13;29.30;;;6.20;99.90;;;;;;5029700;28;20041;-69
2020/12/05 04:46:27;;;;;;;45.70;28.15;;;6.20;99.90;;;;;;5028714;28;20042;-68
2020/12/05 04:48:55;;;;;;;38.70;25.98;;;6.20;99.90;;;;;;5032752;28;20552;-70
2020/12/05 04:51:26;;;;;;;39.22;26.48;;;6.20;99.90;;;;;;5026371;28;20948;-69
2020/12/05 04:53:52;;;;;;;43.22;26.27;;;6.20;99.90;;;;;;5028447;28;20072;-68
2020/12/05 04:56:20;;;;;;;38.78;24.65;;;6.20;99.90;;;;;;5025725;28;20068;-73
2020/12/05 04:58:48;;;;;;;37.58;26.63;;;6.20;99.90;;;;;;5026346;28;20037;-71
2020/12/05 05:01:19;;;;;;;38.42;24.30;;;6.20;99.90;;;;;;5027852;28;20138;-71
2020/12/05 05:03:45;;;;;;;41.78;27.23;;;6.20;99.90;;;;;;5031391;28;20068;-69
2020/12/05 05:06:20;;;;;;;37.75;26.00;;;6.20;99.90;;;;;;5022883;28;20676;-70
2020/12/05 05:08:47;;;;;;;41.63;25.48;;;6.30;99.90;;;;;;5030589;28;20064;-75
2020/12/05 05:11:16;;;;;;;40.15;24.98;;;6.20;99.90;;;;;;5029691;28;20041;-68
2020/12/05 05:14:13;;;;;;;37.38;23.20;;;6.30;99.90;;;;;;5031936;28;20080;-69
2020/12/05 05:16:40;;;;;;;33.97;23.08;;;6.30;99.90;;;;;;5029938;28;20678;-70
2020/12/05 05:19:23;;;;;;;37.67;24.23;;;6.30;99.90;;;;;;5031817;28;20166;-70
2020/12/05 05:21:50;;;;;;;42.10;25.80;;;6.30;99.90;;;;;;5029807;28;20673;-71
2020/12/05 05:24:21;;;;;;;38.78;26.63;;;6.30;99.90;;;;;;5035082;28;20065;-70
2020/12/05 05:27:01;;;;;;;36.45;25.13;;;6.30;99.90;;;;;;5027262;28;20059;-71
2020/12/05 05:29:32;;;;;;;40.08;27.40;;;6.30;99.90;;;;;;5024124;28;20233;-74
2020/12/05 05:32:12;;;;;;;36.03;24.88;;;6.30;99.90;;;;;;5032962;28;20045;-68
2020/12/05 05:34:38;;;;;;;35.75;24.70;;;6.30;99.90;;;;;;5028514;28;20463;-68
2020/12/05 05:37:19;;;;;;;37.83;24.10;;;6.30;99.90;;;;;;5033076;28;20958;-68
2020/12/05 05:39:47;;;;;;;41.97;26.75;;;6.20;99.90;;;;;;5028911;28;20045;-70
2020/12/05 05:42:30;;;;;;;33.30;23.13;;;6.20;99.90;;;;;;5026953;28;20068;-73
2020/12/05 05:45:18;;;;;;;42.45;26.40;;;6.20;99.90;;;;;;5035868;28;20040;-70
2020/12/05 05:47:47;;;;;;;35.47;24.90;;;6.30;99.90;;;;;;5014997;28;20041;-71
2020/12/05 05:50:32;;;;;;;36.53;24.60;;;6.20;99.90;;;;;;5007282;28;20490;-68
2020/12/05 05:53:23;;;;;;;40.60;26.35;;;6.20;99.90;;;;;;5010611;28;20064;-72
2020/12/05 05:55:50;;;;;;;37.03;24.10;;;6.30;99.90;;;;;;5009552;28;20950;-68
2020/12/05 05:58:21;;;;;;;36.40;24.80;;;6.30;99.90;;;;;;5008807;28;20139;-70
2020/12/05 06:00:49;;;;;;;42.67;27.42;;;6.30;99.90;;;;;;5010961;28;20070;-71
2020/12/05 06:03:24;;;;;;;40.05;25.15;;;6.30;99.90;;;;;;5004758;28;20200;-71
2020/12/05 06:05:56;;;;;;;36.85;25.48;;;6.20;99.90;;;;;;5003488;28;20053;-70
2020/12/05 06:08:27;;;;;;;36.30;25.95;;;6.30;99.90;;;;;;5008767;28;20057;-75
2020/12/05 06:11:08;;;;;;;32.97;23.58;;;6.30;99.90;;;;;;5007734;28;20462;-72
2020/12/05 06:13:35;;;;;;;;;;;6.30;99.90;;;;;;5004209;28;20049;-69
2020/12/05 06:16:02;;;;;;;36.70;23.52;;;6.30;99.90;;;;;;5009907;28;20646;-71
2020/12/05 06:18:30;;;;;;;37.55;25.23;;;6.20;99.90;;;;;;5004960;28;20519;-69
2020/12/05 06:20:57;;;;;;;35.90;26.63;;;6.20;99.90;;;;;;5008155;28;20876;-68
2020/12/05 06:23:31;;;;;;;36.35;24.55;;;6.20;99.90;;;;;;5004320;28;20048;-67
2020/12/05 06:26:00;;;;;;;39.35;25.38;;;6.20;99.90;;;;;;5007524;28;20045;-69
2020/12/05 06:28:28;;;;;;;41.72;26.42;;;6.20;99.90;;;;;;5018834;28;20119;-73
2020/12/05 06:30:55;;;;;;;41.72;25.17;;;6.20;99.90;;;;;;5010472;28;20584;-69
2020/12/05 06:33:40;;;;;;;35.65;24.25;;;6.20;99.90;;;;;;5007047;28;20378;-70
2020/12/05 06:36:39;;;;;;;43.45;26.60;;;6.20;99.90;;;;;;5013151;28;20060;-71
2020/12/05 06:39:06;;;;;;;38.72;24.50;;;6.20;99.90;;;;;;4988553;28;20167;-68
2020/12/05 06:41:37;;;;;;;34.95;24.63;;;6.20;99.90;;;;;;5025639;28;20155;-75
2020/12/05 06:44:24;;;;;;;39.08;26.77;;;6.20;99.90;;;;;;5028437;28;20717;-67
2020/12/05 06:46:55;;;;;;;38.10;26.85;;;6.20;99.90;;;;;;5022936;28;20062;-67
2020/12/05 06:49:37;;;;;;;34.13;24.40;;;6.20;99.90;;;;;;5004338;28;20050;-74
2020/12/05 06:52:25;;;;;;;39.42;26.23;;;6.20;99.90;;;;;;5011432;28;20373;-72
2020/12/05 06:55:05;;;;;;;34.60;24.03;;;6.20;99.90;;;;;;5025426;28;20044;-70
2020/12/05 06:57:34;;;;;;;37.17;25.00;;;6.20;99.90;;;;;;5028672;28;20045;-69
2020/12/05 07:00:13;;;;;;;40.53;25.35;;;6.20;99.90;;;;;;5026255;28;20125;-71
2020/12/05 07:02:59;;;;;;;43.53;23.73;;;6.20;99.90;;;;;;5032141;28;20064;-70
2020/12/05 07:05:35;;;;;;;48.28;26.92;;;6.30;99.90;;;;;;5026863;28;20083;-67
2020/12/05 07:08:26;;;;;;;41.75;28.20;;;6.30;99.90;;;;;;5025162;28;20064;-70
2020/12/05 07:10:55;;;;;;;35.25;24.55;;;6.30;99.90;;;;;;5025380;28;20525;-68
2020/12/05 07:13:43;;;;;;;36.05;24.25;;;6.30;99.90;;;;;;5025612;28;20048;-71
2020/12/05 07:16:16;;;;;;;37.97;26.50;;;6.30;99.90;;;;;;5024602;28;20076;-70
2020/12/05 07:18:48;;;;;;;44.58;25.17;;;6.30;99.90;;;;;;5028734;28;20057;-69
2020/12/05 07:21:15;;;;;;;31.52;22.33;;;6.30;99.90;;;;;;5026377;28;20152;-71
2020/12/05 07:23:42;;;;;;;34.28;23.33;;;6.30;99.90;;;;;;5027767;28;20107;-75
2020/12/05 07:26:10;;;;;;;38.75;23.33;;;6.30;99.90;;;;;;5030995;28;20052;-71
2020/12/05 07:28:37;;;;;;;44.00;27.05;;;6.40;99.90;;;;;;5034565;28;20041;-69
2020/12/05 07:31:04;;;;;;;37.08;26.45;;;6.40;99.90;;;;;;5035597;28;20080;-70
2020/12/05 07:33:34;;;;;;;33.83;22.33;;;6.40;99.90;;;;;;5020999;28;20057;-67
2020/12/05 07:36:07;;;;;;;34.53;23.88;;;6.40;99.90;;;;;;5032039;28;20347;-75
2020/12/05 07:38:36;;;;;;;38.97;24.90;;;6.40;99.90;;;;;;5027645;28;20048;-69
2020/12/05 07:41:16;;;;;;;38.30;25.73;;;6.40;99.90;;;;;;5029015;28;20049;-69
2020/12/05 07:43:44;;;;;;;37.67;25.85;;;6.40;99.90;;;;;;5005321;28;20041;-68
2020/12/05 07:46:13;;;;;;;35.70;22.98;;;6.30;99.90;;;;;;5007008;28;20049;-70
2020/12/05 07:48:40;;;;;;;37.47;24.00;;;6.40;99.90;;;;;;5008626;28;20092;-71
2020/12/05 07:51:17;;;;;;;30.83;23.25;;;6.40;99.90;;;;;;5010726;28;20060;-74
2020/12/05 07:53:45;;;;;;;31.77;22.52;;;6.40;99.90;;;;;;5010304;28;20362;-75
2020/12/05 07:56:17;;;;;;;35.22;23.30;;;6.40;99.90;;;;;;5010064;28;20220;-69
2020/12/05 07:58:46;;;;;;;38.63;25.63;;;6.40;99.90;;;;;;5012930;28;20163;-69
2020/12/05 08:01:28;;;;;;;38.03;25.02;;;6.40;99.90;;;;;;5006370;28;21354;-75
2020/12/05 08:04:03;;;;;;;37.90;24.73;;;6.40;99.90;;;;;;5010901;28;20552;-71
2020/12/05 08:06:43;;;;;;;36.15;23.67;;;6.40;99.90;;;;;;5008340;28;20046;-71
2020/12/05 08:09:19;;;;;;;33.78;22.63;;;6.50;99.90;;;;;;5010662;28;20624;-71
2020/12/05 08:11:51;;;;;;;35.63;23.15;;;6.50;99.90;;;;;;5011354;28;20065;-69
2020/12/05 08:14:18;;;;;;;35.17;23.00;;;6.50;99.90;;;;;;5014269;28;20045;-69
2020/12/05 08:16:45;;;;;;;29.23;21.20;;;6.50;99.90;;;;;;5009514;28;20057;-73
2020/12/05 08:19:12;;;;;;;35.28;21.20;;;6.50;99.90;;;;;;5017727;28;20049;-75
2020/12/05 08:21:39;;;;;;;30.00;21.75;;;6.50;99.90;;;;;;5008571;28;20050;-70
2020/12/05 08:24:18;;;;;;;28.63;20.55;;;6.50;99.90;;;;;;5009940;28;20119;-73
2020/12/05 08:26:49;;;;;;;32.88;22.60;;;6.50;99.90;;;;;;5008141;28;20135;-69
2020/12/05 08:29:18;;;;;;;32.28;21.98;;;6.50;99.90;;;;;;5009497;28;20832;-70
2020/12/05 08:31:45;;;;;;;32.05;21.67;;;6.60;99.90;;;;;;5011147;28;20054;-73
2020/12/05 08:34:11;;;;;;;31.33;20.15;;;6.60;99.90;;;;;;5015066;28;20417;-73
2020/12/05 08:36:43;;;;;;;29.73;20.23;;;6.60;99.90;;;;;;5005352;28;20046;-70
2020/12/05 08:39:13;;;;;;;37.15;23.58;;;6.60;99.90;;;;;;5019547;28;20037;-72
2020/12/05 08:41:47;;;;;;;34.77;20.33;;;6.60;99.90;;;;;;5005854;28;20769;-67
2020/12/05 08:44:15;;;;;;;30.77;22.33;;;6.60;99.90;;;;;;5009121;28;20128;-71
2020/12/05 08:46:42;;;;;;;32.13;21.48;;;6.60;99.90;;;;;;5009020;28;20072;-75
2020/12/05 08:49:16;;;;;;;29.65;20.55;;;6.70;99.90;;;;;;5008319;28;20077;-68
2020/12/05 08:51:49;;;;;;;31.05;22.85;;;6.70;99.90;;;;;;5014011;28;20118;-69
2020/12/05 08:54:15;;;;;;;36.15;20.88;;;6.70;99.90;;;;;;5010057;28;20574;-69
2020/12/05 08:56:42;;;;;;;35.03;21.65;;;6.70;99.90;;;;;;5006712;28;20156;-69
2020/12/05 08:59:10;;;;;;;31.55;19.83;;;6.70;99.90;;;;;;5009540;28;20397;-69
2020/12/05 09:01:41;;;;;;;28.33;18.65;;;6.70;99.90;;;;;;5008008;28;20061;-68
2020/12/05 09:04:12;;;;;;;27.85;19.00;;;6.70;99.90;;;;;;5004987;28;20088;-67
2020/12/05 09:06:39;;;;;;;35.40;23.25;;;6.70;99.90;;;;;;5009827;28;20559;-75
2020/12/05 09:09:06;;;;;;;30.33;20.73;;;6.80;99.90;;;;;;5009809;28;20056;-68
2020/12/05 09:12:05;;;;;;;28.88;20.80;;;6.80;99.90;;;;;;5007761;28;20037;-70
2020/12/05 09:14:32;;;;;;;26.52;17.75;;;6.80;99.90;;;;;;5011977;28;20049;-67
2020/12/05 09:16:59;;;;;;;29.25;19.33;;;6.80;99.90;;;;;;5009069;28;20053;-67
2020/12/05 09:19:28;;;;;;;29.83;20.73;;;6.80;99.90;;;;;;5005056;28;20052;-72
2020/12/05 09:21:57;;;;;;;29.08;20.02;;;6.90;99.90;;;;;;5011498;28;20477;-69
2020/12/05 09:24:24;;;;;;;37.72;22.98;;;6.90;99.90;;;;;;5006309;28;20053;-69
2020/12/05 09:26:59;;;;;;;35.92;21.48;;;6.80;99.90;;;;;;5008071;28;20505;-70
2020/12/05 09:29:26;;;;;;;28.10;20.52;;;6.90;99.90;;;;;;5007141;28;20054;-70
2020/12/05 09:31:56;;;;;;;30.15;18.55;;;6.90;99.90;;;;;;5009189;28;20442;-72
2020/12/05 09:34:42;;;;;;;33.00;20.88;;;6.90;99.90;;;;;;5004355;28;20081;-73
2020/12/05 09:37:11;;;;;;;27.65;19.52;;;7.00;99.90;;;;;;5009133;28;20116;-67
2020/12/05 09:39:38;;;;;;;26.73;19.33;;;7.00;99.90;;;;;;5007220;28;20133;-72
2020/12/05 09:42:05;;;;;;;25.58;18.25;;;7.00;99.90;;;;;;5017276;28;20055;-74
2020/12/05 09:44:32;;;;;;;30.20;20.73;;;7.00;99.90;;;;;;5007418;28;20119;-68
2020/12/05 09:47:02;;;;;;;29.55;19.75;;;7.10;99.90;;;;;;5007385;28;20073;-68
2020/12/05 09:49:29;;;;;;;28.52;18.05;;;7.10;99.90;;;;;;5012832;28;20129;-73
2020/12/05 09:51:55;;;;;;;25.00;17.20;;;7.10;99.90;;;;;;5007904;28;20041;-66
2020/12/05 09:54:22;;;;;;;29.15;19.00;;;7.20;99.90;;;;;;5015512;28;20055;-69
2020/12/05 09:56:51;;;;;;;30.13;19.77;;;7.20;99.90;;;;;;5009790;28;20038;-74
2020/12/05 09:59:18;;;;;;;24.50;18.33;;;7.20;99.90;;;;;;5005671;28;20053;-70
2020/12/05 10:01:44;;;;;;;26.60;19.45;;;7.20;99.90;;;;;;5015691;28;20145;-71
2020/12/05 10:04:14;;;;;;;31.02;18.58;;;7.20;99.90;;;;;;5001396;28;20485;-74
2020/12/05 10:06:40;;;;;;;29.75;18.00;;;7.20;99.90;;;;;;5005077;28;20060;-70
2020/12/05 10:09:07;;;;;;;27.70;18.55;;;7.20;99.90;;;;;;5009747;28;20726;-68
2020/12/05 10:11:33;;;;;;;28.08;19.50;;;7.30;99.90;;;;;;5006027;28;20054;-67
2020/12/05 10:13:59;;;;;;;28.95;17.00;;;7.30;99.90;;;;;;5011620;28;20069;-68
2020/12/05 10:16:26;;;;;;;27.83;19.88;;;7.30;99.90;;;;;;5005045;28;20141;-68
2020/12/05 10:18:52;;;;;;;22.38;16.30;;;7.30;99.90;;;;;;5006474;28;20046;-73
2020/12/05 10:21:19;;;;;;;27.10;18.55;;;7.30;99.90;;;;;;5007862;28;20045;-68
2020/12/05 10:23:45;;;;;;;25.45;16.60;;;7.30;99.90;;;;;;5011518;28;20474;-68
2020/12/05 10:26:11;;;;;;;26.98;16.33;;;7.40;99.90;;;;;;5015848;28;20123;-67
2020/12/05 10:28:41;;;;;;;29.15;18.27;;;7.40;99.90;;;;;;5007467;28;20058;-68
2020/12/05 10:31:07;;;;;;;29.95;18.38;;;7.40;99.90;;;;;;5008490;28;20058;-73
2020/12/05 10:33:34;;;;;;;27.80;16.67;;;7.50;99.90;;;;;;5007860;28;20519;-66
2020/12/05 10:36:00;;;;;;;26.13;18.67;;;7.50;99.90;;;;;;5004564;28;20123;-72
2020/12/05 10:38:27;;;;;;;23.60;16.33;;;7.50;99.90;;;;;;5003463;28;20077;-70
2020/12/05 10:40:57;;;;;;;24.40;17.17;;;7.50;99.90;;;;;;5010842;28;20034;-66
2020/12/05 10:43:23;;;;;;;26.02;18.95;;;7.50;99.90;;;;;;5010190;28;20049;-66
2020/12/05 10:45:50;;;;;;;24.88;17.38;;;7.50;99.90;;;;;;5013799;28;20050;-71
2020/12/05 10:48:17;;;;;;;30.25;19.42;;;7.50;99.90;;;;;;5009590;28;20049;-66
2020/12/05 10:50:43;;;;;;;28.27;16.52;;;7.50;99.90;;;;;;5005616;28;20045;-72
2020/12/05 10:53:09;;;;;;;22.02;16.77;;;7.60;99.90;;;;;;5013919;28;20093;-68
2020/12/05 10:55:36;;;;;;;26.73;17.70;;;7.60;99.90;;;;;;5009643;28;20124;-73
2020/12/05 10:58:04;;;;;;;26.65;18.63;;;7.60;99.90;;;;;;5004596;28;20132;-74
2020/12/05 11:00:30;;;;;;;25.50;17.85;;;7.60;99.90;;;;;;5007068;28;20042;-67
2020/12/05 11:02:57;;;;;;;36.45;20.88;;;7.60;99.90;;;;;;5028414;28;20746;-67
2020/12/05 11:05:23;;;;;;;25.67;18.45;;;7.60;99.90;;;;;;5025638;28;20125;-68
2020/12/05 11:07:52;;;;;;;29.77;16.10;;;7.60;99.90;;;;;;5027431;28;20052;-72
2020/12/05 11:10:18;;;;;;;24.02;16.77;;;7.60;99.90;;;;;;5030319;28;20049;-70
2020/12/05 11:12:45;;;;;;;25.40;16.90;;;7.60;99.90;;;;;;5024892;28;20046;-71
2020/12/05 11:15:11;;;;;;;24.65;19.13;;;7.60;99.90;;;;;;5031655;28;20171;-68
2020/12/05 11:17:38;;;;;;;26.92;18.05;;;7.60;99.90;;;;;;5025663;28;20040;-70
2020/12/05 11:20:05;;;;;;;22.67;17.33;;;7.60;99.90;;;;;;5027034;28;20115;-71
2020/12/05 11:22:31;;;;;;;27.23;16.55;;;7.60;99.90;;;;;;5036988;28;20061;-68
2020/12/05 11:24:57;;;;;;;26.73;17.48;;;7.60;99.90;;;;;;5037457;28;20718;-70
2020/12/05 11:27:24;;;;;;;26.88;17.65;;;7.60;99.90;;;;;;5029204;28;20057;-67
2020/12/05 11:29:51;;;;;;;20.67;16.55;;;7.60;99.90;;;;;;5035432;28;20046;-70
2020/12/05 11:32:18;;;;;;;26.67;16.98;;;7.60;99.90;;;;;;5028186;28;20045;-70
2020/12/05 11:34:44;;;;;;;29.80;19.67;;;7.60;99.90;;;;;;5040257;28;20073;-68
2020/12/05 11:37:11;;;;;;;27.65;19.65;;;7.60;99.90;;;;;;5033398;28;20084;-69
2020/12/05 11:39:37;;;;;;;30.60;19.23;;;7.60;99.90;;;;;;5030415;28;20060;-71
2020/12/05 11:42:03;;;;;;;25.90;17.65;;;7.60;99.90;;;;;;5036716;28;20081;-67
2020/12/05 11:44:30;;;;;;;32.08;18.08;;;7.60;99.90;;;;;;5030607;28;20072;-73
2020/12/05 11:46:58;;;;;;;25.15;18.35;;;7.70;99.90;;;;;;5034441;28;20044;-68
2020/12/05 11:49:24;;;;;;;25.50;17.33;;;7.60;99.90;;;;;;5033325;28;20186;-67
2020/12/05 11:51:51;;;;;;;32.55;21.85;;;7.60;99.90;;;;;;5029587;28;20045;-67
2020/12/05 11:54:18;;;;;;;26.45;18.73;;;7.70;99.90;;;;;;5036095;28;20080;-70
2020/12/05 11:56:44;;;;;;;29.60;19.75;;;7.70;99.90;;;;;;5031354;28;20486;-68
2020/12/05 11:59:10;;;;;;;25.20;18.65;;;7.70;99.90;;;;;;5031252;28;20038;-67
2020/12/05 12:01:40;;;;;;;28.48;19.42;;;7.60;99.90;;;;;;5037537;28;20741;-74
2020/12/05 12:04:07;;;;;;;28.70;18.10;;;7.70;99.90;;;;;;5028380;28;20084;-66
2020/12/05 12:06:34;;;;;;;29.40;20.52;;;7.70;99.90;;;;;;5034493;28;20085;-68
2020/12/05 12:09:00;;;;;;;25.40;18.98;;;7.70;99.90;;;;;;5031775;28;20059;-66
2020/12/05 12:11:27;;;;;;;29.73;18.73;;;7.70;99.90;;;;;;5027167;28;20049;-67
2020/12/05 12:13:53;;;;;;;31.65;19.25;;;7.60;99.90;;;;;;5030433;28;20053;-67
2020/12/05 12:16:20;;;;;;;32.28;21.25;;;7.60;99.90;;;;;;5028002;28;20051;-70
2020/12/05 12:18:46;;;;;;;30.83;17.27;;;7.60;99.90;;;;;;5033853;28;20073;-69
2020/12/05 12:21:13;;;;;;;28.77;20.20;;;7.60;99.90;;;;;;5031142;28;20053;-71
2020/12/05 12:23:39;;;;;;;30.15;18.40;;;7.60;99.90;;;;;;5029358;28;20120;-67
2020/12/05 12:26:06;;;;;;;29.38;18.38;;;7.60;99.90;;;;;;5034299;28;20493;-73
2020/12/05 12:28:32;;;;;;;26.30;19.20;;;7.60;99.90;;;;;;5032181;28;20049;-70
2020/12/05 12:30:58;;;;;;;32.03;20.40;;;7.60;99.90;;;;;;5032637;28;20057;-74
2020/12/05 12:33:25;;;;;;;32.95;23.13;;;7.60;99.90;;;;;;5031880;28;20072;-70
2020/12/05 12:35:51;;;;;;;24.63;18.00;;;7.60;99.90;;;;;;5028920;28;20060;-69
2020/12/05 12:38:18;;;;;;;29.90;18.05;;;7.60;99.90;;;;;;5030653;28;20081;-72
2020/12/05 12:40:44;;;;;;;24.75;18.83;;;7.70;99.90;;;;;;5026091;28;20362;-67
2020/12/05 12:43:10;;;;;;;26.58;18.15;;;7.70;99.90;;;;;;5029221;28;20049;-74
2020/12/05 12:45:37;;;;;;;26.10;18.70;;;7.70;99.90;;;;;;5026778;28;20041;-67
2020/12/05 12:50:37;;;;;;;30.30;18.60;;;7.60;99.90;;;;;;5032240;28;20045;-68